createdAt,value
2019-05-11T00:00:36.263Z,1.20
2019-05-11T00:03:07.125Z,1.53
2019-05-11T00:05:37.793Z,1.97
2019-05-11T00:08:08.499Z,1.10
2019-05-11T00:10:39.237Z,1.00
2019-05-11T00:13:09.925Z,0.97
2019-05-11T00:15:40.601Z,0.80
2019-05-11T00:18:11.354Z,1.13
2019-05-11T00:20:42.070Z,0.83
2019-05-11T00:23:12.756Z,1.00
2019-05-11T00:25:43.627Z,1.13
2019-05-11T00:28:14.392Z,1.30
2019-05-11T00:30:45.251Z,0.93
2019-05-11T00:33:16.033Z,0.73
2019-05-11T00:35:46.841Z,0.97
2019-05-11T00:38:17.501Z,0.80
2019-05-11T00:40:48.285Z,3.00
2019-05-11T00:43:19.055Z,0.73
2019-05-11T00:45:49.865Z,0.60
2019-05-11T00:48:20.750Z,0.60
2019-05-11T00:50:52.504Z,0.90
2019-05-11T00:53:23.537Z,0.60
2019-05-11T00:55:54.221Z,0.50
2019-05-11T00:58:25.145Z,0.60
2019-05-11T01:00:55.953Z,0.80
2019-05-11T01:03:26.839Z,0.60
2019-05-11T01:05:57.520Z,0.80
2019-05-11T01:08:28.389Z,0.60
2019-05-11T01:10:59.166Z,1.40
2019-05-11T01:13:29.823Z,0.73
2019-05-11T01:16:01.721Z,0.60
2019-05-11T01:18:32.408Z,0.70
2019-05-11T01:21:03.266Z,0.50
2019-05-11T01:23:34.152Z,1.43
2019-05-11T01:26:04.977Z,1.00
2019-05-11T01:28:35.766Z,1.17
2019-05-11T01:31:06.525Z,0.50
2019-05-11T01:33:37.332Z,0.60
2019-05-11T01:36:08.070Z,1.23
2019-05-11T01:38:38.741Z,0.73
2019-05-11T01:41:09.509Z,0.60
2019-05-11T01:43:40.343Z,0.60
2019-05-11T01:46:11.071Z,0.60
2019-05-11T01:48:41.839Z,0.40
2019-05-11T01:51:12.718Z,0.37
2019-05-11T01:53:43.408Z,1.27
2019-05-11T01:56:14.155Z,0.70
2019-05-11T01:58:44.875Z,1.03
2019-05-11T02:01:15.649Z,0.50
2019-05-11T02:03:46.445Z,0.57
2019-05-11T02:06:17.241Z,0.40
2019-05-11T02:08:48.233Z,0.60
2019-05-11T02:11:19.053Z,0.50
2019-05-11T02:13:49.656Z,0.60
2019-05-11T02:16:20.431Z,0.50
2019-05-11T02:18:51.273Z,0.43
2019-05-11T02:21:22.200Z,0.90
2019-05-11T02:23:52.897Z,0.83
2019-05-11T02:26:23.701Z,0.60
2019-05-11T02:28:54.432Z,0.50
2019-05-11T02:31:25.285Z,0.60
2019-05-11T02:33:56.018Z,0.80
2019-05-11T02:36:26.910Z,0.60
2019-05-11T02:38:57.583Z,0.40
2019-05-11T02:41:36.330Z,0.50
2019-05-11T02:44:00.683Z,0.60
2019-05-11T02:46:31.707Z,0.80
2019-05-11T02:49:02.504Z,0.50
2019-05-11T02:51:34.557Z,0.63
2019-05-11T02:54:06.648Z,0.50
2019-05-11T02:56:37.364Z,0.67
2019-05-11T02:59:09.092Z,0.70
2019-05-11T03:01:39.858Z,0.70
2019-05-11T03:04:10.603Z,0.50
2019-05-11T03:06:41.344Z,0.80
2019-05-11T03:09:12.092Z,0.70
2019-05-11T03:11:55.083Z,1.07
2019-05-11T03:14:15.233Z,0.60
2019-05-11T03:16:47.677Z,0.83
2019-05-11T03:19:18.564Z,0.67
2019-05-11T03:21:49.337Z,0.47
2019-05-11T03:24:23.915Z,0.80
2019-05-11T03:26:52.613Z,0.80
2019-05-11T03:29:23.408Z,0.73
2019-05-11T03:31:54.225Z,0.80
2019-05-11T03:34:24.951Z,0.50
2019-05-11T03:36:55.721Z,0.60
2019-05-11T03:39:26.636Z,0.67
2019-05-11T03:42:13.224Z,0.60
2019-05-11T03:44:30.026Z,0.60
2019-05-11T03:47:00.634Z,0.53
2019-05-11T03:49:31.399Z,0.63
2019-05-11T03:52:02.193Z,0.50
2019-05-11T03:54:33.020Z,1.00
2019-05-11T03:57:04.042Z,0.90
2019-05-11T03:59:34.723Z,0.40
2019-05-11T04:02:05.613Z,0.63
2019-05-11T04:04:36.491Z,0.60
2019-05-11T04:07:07.154Z,0.60
2019-05-11T04:09:37.986Z,1.07
2019-05-11T04:12:08.830Z,1.53
2019-05-11T04:14:39.593Z,0.67
2019-05-11T04:17:10.497Z,0.70
2019-05-11T04:19:41.270Z,0.60
2019-05-11T04:22:12.084Z,0.80
2019-05-11T04:24:42.862Z,1.30
2019-05-11T04:27:13.504Z,0.53
2019-05-11T04:29:44.388Z,1.20
2019-05-11T04:32:15.087Z,0.70
2019-05-11T04:34:45.735Z,0.70
2019-05-11T04:37:16.536Z,0.60
2019-05-11T04:39:47.372Z,0.70
2019-05-11T04:42:18.326Z,0.53
2019-05-11T04:44:52.275Z,1.50
2019-05-11T04:47:21.605Z,0.60
2019-05-11T04:49:52.456Z,0.80
2019-05-11T04:52:23.218Z,0.90
2019-05-11T04:54:53.829Z,1.30
2019-05-11T04:57:24.569Z,0.80
2019-05-11T04:59:55.240Z,0.70
2019-05-11T05:02:27.308Z,0.70
2019-05-11T05:04:59.252Z,0.80
2019-05-11T05:07:29.946Z,0.60
2019-05-11T05:10:00.833Z,0.50
2019-05-11T05:12:31.662Z,1.00
2019-05-11T05:15:02.451Z,0.80
2019-05-11T05:17:33.128Z,0.70
2019-05-11T05:20:03.914Z,0.60
2019-05-11T05:22:34.708Z,0.63
2019-05-11T05:25:05.545Z,0.80
2019-05-11T05:27:36.440Z,0.57
2019-05-11T05:30:08.097Z,1.10
2019-05-11T05:32:38.866Z,0.60
2019-05-11T05:35:10.149Z,0.60
2019-05-11T05:37:40.934Z,1.20
2019-05-11T05:40:12.814Z,2.00
2019-05-11T05:42:43.750Z,0.60
2019-05-11T05:45:14.840Z,0.60
2019-05-11T05:47:45.621Z,0.70
2019-05-11T05:50:17.258Z,0.50
2019-05-11T05:52:48.004Z,0.70
2019-05-11T05:55:18.608Z,0.70
2019-05-11T05:57:49.370Z,0.60
2019-05-11T06:00:20.377Z,2.50
2019-05-11T06:02:51.118Z,1.10
2019-05-11T06:05:21.995Z,0.70
2019-05-11T06:07:52.617Z,0.93
2019-05-11T06:10:24.277Z,0.57
2019-05-11T06:12:55.113Z,0.40
2019-05-11T06:15:26.007Z,0.70
2019-05-11T06:18:00.300Z,0.70
2019-05-11T06:20:29.353Z,0.60
2019-05-11T06:22:59.985Z,1.03
2019-05-11T06:25:30.738Z,0.60
2019-05-11T06:28:01.424Z,0.70
2019-05-11T06:30:32.135Z,0.70
2019-05-11T06:33:02.794Z,0.53
2019-05-11T06:35:33.646Z,0.80
2019-05-11T06:38:04.397Z,0.60
2019-05-11T06:40:35.223Z,0.60
2019-05-11T06:43:06.011Z,0.60
2019-05-11T06:45:36.701Z,0.80
2019-05-11T06:48:07.366Z,0.40
2019-05-11T06:50:38.176Z,1.50
2019-05-11T06:53:09.104Z,0.60
2019-05-11T06:55:39.813Z,0.57
2019-05-11T06:58:10.601Z,0.50
2019-05-11T07:00:41.475Z,0.30
2019-05-11T07:03:12.163Z,0.60
2019-05-11T07:05:43.093Z,0.80
2019-05-11T07:08:13.959Z,0.40
2019-05-11T07:10:44.878Z,0.57
2019-05-11T07:13:15.637Z,0.63
2019-05-11T07:15:46.501Z,0.40
2019-05-11T07:18:17.375Z,0.63
2019-05-11T07:20:50.873Z,0.50
2019-05-11T07:23:20.789Z,0.50
2019-05-11T07:25:51.721Z,0.43
2019-05-11T07:28:22.497Z,0.47
2019-05-11T07:30:53.291Z,0.40
2019-05-11T07:33:23.929Z,0.40
2019-05-11T07:35:54.730Z,0.60
2019-05-11T07:38:27.664Z,0.50
2019-05-11T07:40:58.346Z,0.50
2019-05-11T07:43:29.255Z,0.40
2019-05-11T07:46:00.087Z,1.37
2019-05-11T07:48:30.933Z,0.57
2019-05-11T07:51:01.581Z,1.83
2019-05-11T07:53:32.454Z,0.50
2019-05-11T07:56:03.242Z,0.50
2019-05-11T07:58:34.022Z,0.40
2019-05-11T08:01:04.769Z,0.40
2019-05-11T08:03:35.645Z,0.40
2019-05-11T08:06:08.699Z,0.40
2019-05-11T08:08:39.239Z,0.43
2019-05-11T08:11:09.954Z,0.50
2019-05-11T08:13:40.642Z,0.40
2019-05-11T08:16:11.432Z,0.60
2019-05-11T08:18:42.265Z,0.60
2019-05-11T08:21:13.340Z,0.70
2019-05-11T08:23:44.037Z,0.40
2019-05-11T08:26:15.098Z,0.40
2019-05-11T08:28:48.435Z,0.50
2019-05-11T08:31:18.896Z,0.40
2019-05-11T08:33:49.731Z,0.40
2019-05-11T08:36:20.519Z,0.50
2019-05-11T08:38:51.465Z,0.60
2019-05-11T08:41:22.213Z,0.43
2019-05-11T08:43:53.070Z,1.03
2019-05-11T08:46:23.793Z,0.60
2019-05-11T08:48:54.504Z,0.40
2019-05-11T08:51:25.206Z,0.60
2019-05-11T08:53:58.194Z,0.40
2019-05-11T08:56:28.961Z,0.50
2019-05-11T08:58:59.976Z,0.40
2019-05-11T09:01:31.311Z,0.40
2019-05-11T09:04:02.166Z,0.43
2019-05-11T09:06:32.991Z,0.50
2019-05-11T09:09:05.334Z,0.50
2019-05-11T09:11:38.722Z,0.70
2019-05-11T09:14:09.019Z,0.40
2019-05-11T09:16:39.826Z,0.60
2019-05-11T09:19:10.687Z,0.50
2019-05-11T09:21:41.292Z,0.30
2019-05-11T09:24:12.080Z,0.50
2019-05-11T09:26:42.856Z,0.50
2019-05-11T09:29:13.626Z,0.40
2019-05-11T09:31:44.392Z,0.50
2019-05-11T09:34:15.097Z,0.70
2019-05-11T09:36:48.004Z,0.50
2019-05-11T09:39:18.438Z,0.40
2019-05-11T09:41:49.270Z,0.50
2019-05-11T09:44:20.213Z,0.80
2019-05-11T09:46:51.008Z,0.50
2019-05-11T09:49:21.875Z,0.50
2019-05-11T09:51:52.607Z,1.40
2019-05-11T09:54:23.377Z,1.03
2019-05-11T09:56:54.223Z,0.50
2019-05-11T09:59:25.051Z,0.50
2019-05-11T10:01:55.928Z,0.43
2019-05-11T10:04:28.825Z,0.57
2019-05-11T10:06:59.032Z,0.50
2019-05-11T10:09:29.679Z,0.50
2019-05-11T10:12:00.502Z,0.50
2019-05-11T10:14:31.316Z,0.50
2019-05-11T10:17:02.311Z,0.50
2019-05-11T10:19:33.266Z,0.80
2019-05-11T10:22:04.087Z,0.47
2019-05-11T10:24:34.945Z,0.77
2019-05-11T10:27:08.281Z,0.50
2019-05-11T10:29:38.484Z,0.60
2019-05-11T10:32:09.264Z,0.60
2019-05-11T10:34:39.932Z,0.70
2019-05-11T10:37:10.877Z,0.40
2019-05-11T10:39:41.680Z,0.40
2019-05-11T10:42:12.671Z,0.50
2019-05-11T10:44:43.517Z,0.50
2019-05-11T10:47:14.399Z,0.40
2019-05-11T10:49:45.228Z,0.60
2019-05-11T10:52:17.996Z,0.47
2019-05-11T10:54:48.569Z,0.50
2019-05-11T10:57:19.271Z,0.50
2019-05-11T10:59:50.154Z,0.50
2019-05-11T11:02:21.045Z,0.47
2019-05-11T11:04:52.836Z,0.40
2019-05-11T11:07:23.640Z,0.50
2019-05-11T11:09:54.304Z,0.40
2019-05-11T11:12:25.180Z,0.40
2019-05-11T11:14:56.041Z,0.60
2019-05-11T11:17:28.773Z,0.40
2019-05-11T11:19:59.497Z,0.50
2019-05-11T11:22:39.359Z,0.50
2019-05-11T11:25:02.907Z,0.47
2019-05-11T11:27:34.775Z,0.50
2019-05-11T11:30:08.967Z,0.43
2019-05-11T11:32:38.768Z,0.80
2019-05-11T11:35:09.915Z,0.87
2019-05-11T11:37:40.643Z,0.50
2019-05-11T11:40:11.797Z,0.60
2019-05-11T11:42:42.733Z,0.50
2019-05-11T11:45:14.066Z,0.50
2019-05-11T11:47:44.832Z,0.40
2019-05-11T11:50:17.787Z,0.40
2019-05-11T11:52:49.273Z,0.60
2019-05-11T11:55:20.119Z,0.40
2019-05-11T11:57:50.907Z,0.40
2019-05-11T12:00:21.645Z,0.40
2019-05-11T12:02:52.381Z,0.43
2019-05-11T12:05:23.121Z,0.40
2019-05-11T12:07:53.909Z,0.30
2019-05-11T12:10:24.685Z,0.50
2019-05-11T12:12:55.417Z,0.43
2019-05-11T12:15:28.296Z,0.47
2019-05-11T12:17:59.001Z,0.40
2019-05-11T12:20:29.720Z,0.40
2019-05-11T12:23:00.374Z,0.50
2019-05-11T12:25:31.267Z,0.40
2019-05-11T12:28:02.044Z,0.60
2019-05-11T12:30:32.904Z,0.50
2019-05-11T12:33:03.712Z,0.40
2019-05-11T12:35:37.643Z,0.40
2019-05-11T12:38:08.147Z,0.50
2019-05-11T12:40:39.044Z,0.50
2019-05-11T12:43:09.858Z,0.50
2019-05-11T12:45:40.910Z,0.50
2019-05-11T12:48:11.701Z,0.30
2019-05-11T12:50:42.363Z,0.40
2019-05-11T12:53:12.968Z,0.40
2019-05-11T12:55:43.735Z,0.40
2019-05-11T12:58:14.595Z,0.40
2019-05-11T13:00:47.788Z,0.40
2019-05-11T13:03:18.806Z,0.90
2019-05-11T13:05:49.838Z,0.40
2019-05-11T13:08:22.873Z,0.37
2019-05-11T13:10:53.729Z,0.40
2019-05-11T13:13:24.659Z,0.60
2019-05-11T13:15:55.589Z,0.40
2019-05-11T13:18:27.885Z,0.40
2019-05-11T13:20:59.433Z,0.47
2019-05-11T13:23:30.414Z,0.40
2019-05-11T13:26:01.341Z,0.40
2019-05-11T13:28:32.126Z,0.40
2019-05-11T13:31:03.192Z,0.53
2019-05-11T13:33:33.969Z,0.40
2019-05-11T13:36:04.936Z,0.40
2019-05-11T13:38:35.693Z,0.50
2019-05-11T13:41:08.004Z,0.80
2019-05-11T13:43:38.833Z,0.40
2019-05-11T13:46:09.506Z,0.40
2019-05-11T13:48:40.258Z,0.40
2019-05-11T13:51:11.033Z,0.40
2019-05-11T13:53:41.730Z,0.40
2019-05-11T13:56:12.513Z,0.40
2019-05-11T13:58:43.478Z,0.60
2019-05-11T14:01:14.250Z,0.40
2019-05-11T14:03:45.025Z,0.40
2019-05-11T14:06:17.743Z,0.30
2019-05-11T14:08:48.572Z,0.40
2019-05-11T14:11:19.466Z,0.40
2019-05-11T14:13:50.262Z,0.30
2019-05-11T14:16:21.104Z,0.30
2019-05-11T14:18:51.641Z,0.30
2019-05-11T14:21:22.405Z,0.40
2019-05-11T14:23:53.108Z,0.30
2019-05-11T14:26:23.992Z,0.30
2019-05-11T14:28:54.781Z,0.37
2019-05-11T14:31:27.472Z,0.40
2019-05-11T14:33:58.031Z,0.40
2019-05-11T14:36:28.894Z,0.30
2019-05-11T14:38:59.764Z,0.37
2019-05-11T14:41:30.467Z,0.40
2019-05-11T14:44:01.231Z,0.40
2019-05-11T14:46:32.028Z,0.30
2019-05-11T14:49:02.908Z,0.40
2019-05-11T14:51:33.669Z,0.40
2019-05-11T14:54:04.582Z,0.40
2019-05-11T14:56:37.779Z,0.43
2019-05-11T14:59:08.911Z,0.80
2019-05-11T15:01:39.881Z,0.90
2019-05-11T15:04:10.824Z,1.80
2019-05-11T15:06:41.655Z,1.00
2019-05-11T15:09:12.525Z,0.87
2019-05-11T15:11:43.237Z,0.70
2019-05-11T15:14:14.172Z,0.90
2019-05-11T15:16:45.120Z,1.00
2019-05-11T15:19:18.328Z,1.03
2019-05-11T15:21:49.684Z,0.87
2019-05-11T15:24:20.373Z,0.63
2019-05-11T15:26:51.116Z,0.67
2019-05-11T15:29:21.985Z,0.97
2019-05-11T15:31:52.764Z,1.30
2019-05-11T15:34:23.654Z,1.17
2019-05-11T15:36:54.465Z,1.73
2019-05-11T15:39:25.525Z,1.57
2019-05-11T15:42:09.212Z,0.50
2019-05-11T15:44:29.956Z,0.40
2019-05-11T15:47:00.852Z,1.23
2019-05-11T15:49:31.710Z,5.80
2019-05-11T15:52:02.783Z,11.90
2019-05-11T15:54:33.659Z,10.33
2019-05-11T15:57:04.700Z,12.63
2019-05-11T15:59:35.614Z,2.03
2019-05-11T16:02:08.595Z,2.50
2019-05-11T16:04:41.347Z,1.70
2019-05-11T16:07:11.281Z,0.70
2019-05-11T16:09:42.145Z,1.50
2019-05-11T16:12:13.295Z,0.70
2019-05-11T16:14:44.877Z,0.93
2019-05-11T16:17:15.854Z,0.30
2019-05-11T16:19:48.933Z,1.53
2019-05-11T16:22:21.208Z,0.50
2019-05-11T16:24:51.070Z,1.07
2019-05-11T16:27:21.760Z,1.10
2019-05-11T16:29:52.637Z,2.17
2019-05-11T16:32:23.636Z,1.27
2019-05-11T16:34:54.415Z,6.30
2019-05-11T16:37:25.289Z,2.63
2019-05-11T16:39:59.195Z,2.37
2019-05-11T16:42:31.784Z,1.67
2019-05-11T16:45:02.707Z,1.60
2019-05-11T16:47:33.601Z,1.20
2019-05-11T16:50:04.793Z,1.60
2019-05-11T16:52:38.479Z,2.30
2019-05-11T16:55:08.916Z,0.90
2019-05-11T16:57:40.162Z,0.83
2019-05-11T17:00:11.210Z,1.23
2019-05-11T17:02:42.070Z,0.90
2019-05-11T17:05:25.269Z,0.90
2019-05-11T17:07:48.125Z,1.30
2019-05-11T17:10:21.515Z,1.17
2019-05-11T17:12:53.239Z,0.40
2019-05-11T17:15:25.593Z,0.60
2019-05-11T17:18:01.890Z,0.50
2019-05-11T17:20:32.750Z,0.53
2019-05-11T17:23:03.630Z,0.47
2019-05-11T17:25:34.387Z,0.40
2019-05-11T17:28:09.209Z,0.53
2019-05-11T17:30:38.661Z,0.50
2019-05-11T17:33:09.715Z,0.30
2019-05-11T17:35:42.873Z,0.50
2019-05-11T17:38:13.647Z,0.50
2019-05-11T17:40:44.453Z,0.40
2019-05-11T17:43:17.963Z,1.57
2019-05-11T17:45:48.424Z,0.60
2019-05-11T17:48:19.349Z,0.30
2019-05-11T17:50:50.156Z,0.43
2019-05-11T17:53:21.062Z,0.40
2019-05-11T17:55:51.784Z,0.40
2019-05-11T17:58:23.108Z,0.40
2019-05-11T18:00:54.006Z,0.40
2019-05-11T18:03:24.969Z,0.40
2019-05-11T18:05:55.740Z,0.40
2019-05-11T18:08:30.263Z,0.40
2019-05-11T18:10:59.189Z,0.47
2019-05-11T18:13:29.981Z,0.97
2019-05-11T18:16:00.658Z,0.40
2019-05-11T18:18:31.533Z,0.40
2019-05-11T18:21:02.334Z,0.40
2019-05-11T18:23:33.161Z,0.40
2019-05-11T18:26:03.968Z,0.40
2019-05-11T18:28:34.685Z,0.40
2019-05-11T18:31:05.433Z,0.50
2019-05-11T18:33:38.151Z,0.50
2019-05-11T18:36:09.062Z,0.40
2019-05-11T18:38:39.871Z,0.60
2019-05-11T18:41:10.662Z,0.50
2019-05-11T18:43:41.632Z,0.47
2019-05-11T18:46:12.469Z,0.67
2019-05-11T18:48:45.229Z,0.50
2019-05-11T18:51:16.162Z,0.60
2019-05-11T18:53:48.260Z,0.80
2019-05-11T18:56:19.125Z,0.60
2019-05-11T18:58:49.825Z,0.50
2019-05-11T19:01:20.625Z,0.80
2019-05-11T19:03:51.500Z,1.10
2019-05-11T19:06:22.469Z,0.87
2019-05-11T19:08:53.237Z,1.20
2019-05-11T19:11:24.081Z,0.70
2019-05-11T19:13:58.168Z,0.70
2019-05-11T19:16:28.804Z,1.10
2019-05-11T19:18:59.937Z,0.97
2019-05-11T19:21:30.907Z,0.77
2019-05-11T19:24:01.852Z,0.93
2019-05-11T19:26:32.749Z,0.93
2019-05-11T19:29:03.383Z,0.73
2019-05-11T19:31:38.438Z,0.70
2019-05-11T19:34:09.997Z,1.13
2019-05-11T19:36:41.000Z,1.03
2019-05-11T19:39:11.896Z,1.00
2019-05-11T19:41:42.809Z,1.10
2019-05-11T19:44:13.609Z,0.83
2019-05-11T19:46:44.520Z,2.00
2019-05-11T19:49:15.320Z,1.47
2019-05-11T19:51:48.520Z,1.27
2019-05-11T19:54:18.840Z,1.40
2019-05-11T19:56:52.278Z,1.30
2019-05-11T19:59:22.112Z,1.60
2019-05-11T20:01:53.043Z,1.10
2019-05-11T20:04:23.846Z,0.93
2019-05-11T20:06:55.171Z,1.43
2019-05-11T20:09:28.214Z,1.00
2019-05-11T20:11:59.066Z,1.20
2019-05-11T20:14:30.132Z,1.13
2019-05-11T20:17:08.978Z,1.50
2019-05-11T20:19:39.872Z,1.07
2019-05-11T20:22:10.846Z,1.00
2019-05-11T20:24:41.614Z,1.73
2019-05-11T20:27:12.421Z,2.60
2019-05-11T20:29:43.441Z,1.27
2019-05-11T20:32:18.803Z,1.10
2019-05-11T20:34:49.533Z,1.87
2019-05-11T20:37:21.152Z,1.50
2019-05-11T20:39:51.884Z,1.80
2019-05-11T20:42:22.681Z,1.50
2019-05-11T20:44:53.555Z,2.10
2019-05-11T20:47:24.461Z,1.87
2019-05-11T20:49:55.341Z,4.03
2019-05-11T20:52:28.293Z,1.73
2019-05-11T20:54:58.569Z,2.23
2019-05-11T20:57:29.734Z,1.30
2019-05-11T21:00:00.549Z,2.10
2019-05-11T21:02:31.649Z,1.50
2019-05-11T21:05:02.735Z,1.23
2019-05-11T21:07:33.699Z,3.60
2019-05-11T21:10:04.486Z,1.87
2019-05-11T21:12:35.342Z,2.47
2019-05-11T21:15:07.205Z,1.57
2019-05-11T21:17:38.215Z,2.07
2019-05-11T21:20:09.402Z,1.17
2019-05-11T21:22:40.884Z,2.60
2019-05-11T21:25:14.394Z,1.40
2019-05-11T21:27:45.315Z,2.13
2019-05-11T21:30:18.458Z,2.40
2019-05-11T21:32:49.208Z,1.50
2019-05-11T21:35:20.161Z,1.30
2019-05-11T21:37:51.613Z,1.80
2019-05-11T21:40:22.458Z,2.80
2019-05-11T21:42:54.766Z,1.57
2019-05-11T21:45:25.646Z,3.10
2019-05-11T21:47:58.052Z,2.63
2019-05-11T21:50:28.873Z,1.53
2019-05-11T21:52:59.941Z,2.07
2019-05-11T21:55:31.792Z,1.90
2019-05-11T21:58:02.566Z,3.23
2019-05-11T22:00:38.773Z,1.73
2019-05-11T22:03:10.613Z,1.37
2019-05-11T22:05:41.368Z,1.43
2019-05-11T22:08:12.277Z,1.77
2019-05-11T22:10:43.123Z,1.90
2019-05-11T22:13:13.912Z,2.43
2019-05-11T22:15:44.794Z,2.27
2019-05-11T22:18:29.792Z,1.57
2019-05-11T22:20:48.557Z,2.00
2019-05-11T22:23:19.414Z,1.63
2019-05-11T22:25:50.635Z,1.53
2019-05-11T22:28:21.568Z,1.57
2019-05-11T22:30:52.397Z,2.17
2019-05-11T22:33:24.528Z,2.20
2019-05-11T22:35:55.299Z,1.67
2019-05-11T22:38:30.027Z,1.50
2019-05-11T22:40:58.557Z,2.23
2019-05-11T22:43:29.338Z,1.60
2019-05-11T22:46:00.283Z,2.10
2019-05-11T22:48:31.284Z,1.80
2019-05-11T22:51:01.917Z,1.47
2019-05-11T22:53:43.789Z,2.13
2019-05-11T22:56:05.026Z,1.60
2019-05-11T22:58:35.685Z,2.50
2019-05-11T23:01:08.513Z,1.80
2019-05-11T23:03:38.999Z,2.83
2019-05-11T23:06:09.674Z,2.23
2019-05-11T23:08:40.434Z,2.33
2019-05-11T23:11:10.928Z,2.33
2019-05-11T23:13:41.684Z,2.40
2019-05-11T23:16:12.501Z,2.00
2019-05-11T23:18:43.198Z,2.40
2019-05-11T23:21:14.044Z,2.70
2019-05-11T23:23:44.696Z,5.27
2019-05-11T23:26:17.662Z,2.27
2019-05-11T23:28:48.734Z,2.10
2019-05-11T23:31:19.644Z,1.90
2019-05-11T23:33:50.603Z,2.90
2019-05-11T23:36:21.413Z,1.87
2019-05-11T23:38:52.116Z,2.00
2019-05-11T23:41:24.908Z,2.97
2019-05-11T23:43:55.213Z,2.13
2019-05-11T23:46:28.251Z,2.90
2019-05-11T23:48:58.410Z,2.10
2019-05-11T23:51:29.157Z,2.50
2019-05-11T23:54:00.037Z,3.10
2019-05-11T23:56:30.829Z,5.90
2019-05-11T23:59:01.570Z,2.43
